createdAt,value
2023-04-04T00:01:11.595Z,73.8
2023-04-04T00:02:27.791Z,73.8
2023-04-04T00:03:43.981Z,73.8
2023-04-04T00:04:59.171Z,73.8
2023-04-04T00:06:15.368Z,73.8
2023-04-04T00:07:31.394Z,73.7
2023-04-04T00:08:47.734Z,73.8
2023-04-04T00:10:03.933Z,73.7
2023-04-04T00:11:20.124Z,73.7
2023-04-04T00:12:36.312Z,73.8
2023-04-04T00:13:52.323Z,73.8
2023-04-04T00:15:08.676Z,73.8
2023-04-04T00:16:24.697Z,73.8
2023-04-04T00:17:41.056Z,73.7
2023-04-04T00:18:57.233Z,73.7
2023-04-04T00:20:13.432Z,73.8
2023-04-04T00:21:28.474Z,73.7
2023-04-04T00:22:44.818Z,73.8
2023-04-04T00:24:01.000Z,73.8
2023-04-04T00:25:17.191Z,73.8
2023-04-04T00:26:33.211Z,73.7
2023-04-04T00:27:49.412Z,73.7
2023-04-04T00:29:05.602Z,73.7
2023-04-04T00:30:21.939Z,73.7
2023-04-04T00:31:37.965Z,73.7
2023-04-04T00:32:54.162Z,73.7
2023-04-04T00:34:10.506Z,73.8
2023-04-04T00:35:26.685Z,73.8
2023-04-04T00:36:42.709Z,73.7
2023-04-04T00:37:58.089Z,73.8
2023-04-04T00:39:14.283Z,73.7
2023-04-04T00:40:30.288Z,73.8
2023-04-04T00:41:46.649Z,78.6
2023-04-04T00:43:02.829Z,78
2023-04-04T00:44:19.018Z,78.5
2023-04-04T00:45:35.036Z,78.1
2023-04-04T00:46:51.393Z,77.5
2023-04-04T00:48:07.595Z,77.2
2023-04-04T00:49:23.772Z,76.8
2023-04-04T00:50:39.953Z,76.4
2023-04-04T00:51:55.976Z,76
2023-04-04T00:53:12.346Z,75.7
2023-04-04T00:54:27.544Z,75.7
2023-04-04T00:55:43.728Z,75.7
2023-04-04T00:56:59.911Z,75.5
2023-04-04T00:58:15.934Z,75.4
2023-04-04T00:59:32.111Z,75.3
2023-04-04T01:00:48.479Z,75.3
2023-04-04T01:02:04.497Z,75.2
2023-04-04T01:03:20.847Z,75.3
2023-04-04T01:04:37.036Z,75.2
2023-04-04T01:05:53.233Z,75.2
2023-04-04T01:07:09.242Z,75.2
2023-04-04T01:08:25.423Z,75.2
2023-04-04T01:09:41.782Z,75.1
2023-04-04T01:10:56.828Z,75.2
2023-04-04T01:12:13.172Z,75.2
2023-04-04T01:13:29.368Z,75.2
2023-04-04T01:14:45.562Z,75.1
2023-04-04T01:16:01.750Z,75.1
2023-04-04T01:17:17.930Z,75.1
2023-04-04T01:18:32.960Z,75
2023-04-04T01:19:49.337Z,75
2023-04-04T01:21:05.523Z,75
2023-04-04T01:22:21.536Z,75
2023-04-04T01:23:37.706Z,75
2023-04-04T01:24:53.891Z,74.9
2023-04-04T01:26:10.262Z,74.9
2023-04-04T01:27:26.462Z,75
2023-04-04T01:28:42.635Z,74.9
2023-04-04T01:29:58.657Z,74.9
2023-04-04T01:31:14.829Z,74.9
2023-04-04T01:32:31.025Z,74.9
2023-04-04T01:33:47.399Z,74.9
2023-04-04T01:35:02.424Z,74.9
2023-04-04T01:36:18.611Z,74.8
2023-04-04T01:37:34.789Z,74.8
2023-04-04T01:38:51.148Z,74.8
2023-04-04T01:40:07.349Z,74.7
2023-04-04T01:41:23.353Z,74.7
2023-04-04T01:42:39.533Z,74.7
2023-04-04T01:43:55.719Z,74.7
2023-04-04T01:45:11.917Z,74.7
2023-04-04T01:46:28.277Z,74.7
2023-04-04T01:47:44.297Z,74.7
2023-04-04T01:49:00.472Z,74.7
2023-04-04T01:50:16.848Z,74.7
2023-04-04T01:51:32.050Z,74.6
2023-04-04T01:52:48.056Z,74.6
2023-04-04T01:54:04.000Z,74.6
2023-04-04T01:55:20.630Z,74.7
2023-04-04T01:56:36.625Z,74.7
2023-04-04T01:57:52.990Z,74.7
2023-04-04T01:59:09.178Z,74.7
2023-04-04T02:00:25.170Z,74.6
2023-04-04T02:01:41.354Z,74.6
2023-04-04T02:02:57.544Z,74.6
2023-04-04T02:04:13.917Z,74.6
2023-04-04T02:05:30.116Z,74.6
2023-04-04T02:06:46.304Z,74.6
2023-04-04T02:08:01.317Z,74.6
2023-04-04T02:09:17.691Z,74.6
2023-04-04T02:10:33.882Z,74.5
2023-04-04T02:11:50.059Z,74.5
2023-04-04T02:13:06.055Z,74.5
2023-04-04T02:14:22.248Z,74.5
2023-04-04T02:15:38.432Z,74.5
2023-04-04T02:16:54.814Z,74.5
2023-04-04T02:18:10.992Z,74.5
2023-04-04T02:19:27.194Z,74.5
2023-04-04T02:20:43.378Z,74.5
2023-04-04T02:21:59.568Z,74.5
2023-04-04T02:23:15.762Z,74.5
2023-04-04T02:24:30.946Z,74.5
2023-04-04T02:25:47.133Z,74.5
2023-04-04T02:27:03.324Z,74.5
2023-04-04T02:28:19.512Z,74.5
2023-04-04T02:29:35.704Z,74.5
2023-04-04T02:30:51.707Z,74.3
2023-04-04T02:32:08.088Z,74.4
2023-04-04T02:33:24.275Z,74.5
2023-04-04T02:34:40.257Z,74.5
2023-04-04T02:35:56.461Z,74.4
2023-04-04T02:37:12.833Z,74.4
2023-04-04T02:38:28.816Z,74.5
2023-04-04T02:39:45.007Z,74.4
2023-04-04T02:41:00.209Z,74.4
2023-04-04T02:42:16.602Z,74.4
2023-04-04T02:43:32.785Z,74.4
2023-04-04T02:44:48.981Z,74.3
2023-04-04T02:46:04.971Z,74.3
2023-04-04T02:47:21.340Z,74.3
2023-04-04T02:48:37.544Z,74.3
2023-04-04T02:49:53.720Z,74.4
2023-04-04T02:51:09.717Z,74.4
2023-04-04T02:52:25.897Z,74.4
2023-04-04T02:53:42.295Z,74.4
2023-04-04T02:54:58.475Z,74.4
2023-04-04T02:56:14.669Z,74.3
2023-04-04T02:57:29.861Z,74.4
2023-04-04T02:58:46.048Z,74.3
2023-04-04T03:00:02.048Z,74.3
2023-04-04T03:01:18.226Z,74.3
2023-04-04T03:02:34.426Z,74.3
2023-04-04T03:03:50.799Z,74.4
2023-04-04T03:05:06.781Z,74.3
2023-04-04T03:06:23.170Z,74.3
2023-04-04T03:07:39.157Z,74.3
2023-04-04T03:08:55.556Z,74.3
2023-04-04T03:10:11.729Z,74.3
2023-04-04T03:11:27.917Z,74.3
2023-04-04T03:12:44.116Z,74.3
2023-04-04T03:13:59.123Z,74.4
2023-04-04T03:15:15.512Z,74.3
2023-04-04T03:16:31.500Z,74.3
2023-04-04T03:17:47.875Z,74.3
2023-04-04T03:19:04.059Z,74.3
2023-04-04T03:20:20.254Z,74.3
2023-04-04T03:21:36.236Z,74.3
2023-04-04T03:22:52.640Z,74.2
2023-04-04T03:24:08.813Z,74.2
2023-04-04T03:25:24.999Z,74.2
2023-04-04T03:26:41.194Z,74.2
2023-04-04T03:27:57.383Z,74.2
2023-04-04T03:29:13.368Z,74.3
2023-04-04T03:30:28.573Z,74.2
2023-04-04T03:31:44.950Z,74.2
2023-04-04T03:33:01.139Z,74.2
2023-04-04T03:34:17.342Z,74.2
2023-04-04T03:35:33.527Z,74.2
2023-04-04T03:36:49.700Z,74.2
2023-04-04T03:38:05.902Z,74.3
2023-04-04T03:39:22.081Z,74.2
2023-04-04T03:40:38.277Z,74.2
2023-04-04T03:41:54.247Z,74.2
2023-04-04T03:43:10.451Z,74.3
2023-04-04T03:44:26.844Z,74.2
2023-04-04T03:45:43.027Z,74.2
2023-04-04T03:46:58.220Z,74.2
2023-04-04T03:48:14.417Z,74.2
2023-04-04T03:49:30.598Z,74.3
2023-04-04T03:50:46.783Z,74.2
2023-04-04T03:52:02.986Z,74.2
2023-04-04T03:53:19.158Z,74.2
2023-04-04T03:54:35.142Z,74.2
2023-04-04T03:55:51.335Z,74.2
2023-04-04T03:57:07.721Z,74.1
2023-04-04T03:58:23.916Z,74.1
2023-04-04T03:59:40.104Z,74.1
2023-04-04T04:00:56.287Z,74.1
2023-04-04T04:02:12.277Z,74.1
2023-04-04T04:03:27.682Z,74.1
2023-04-04T04:04:43.877Z,74.1
2023-04-04T04:06:00.057Z,74.1
2023-04-04T04:07:16.023Z,74.1
2023-04-04T04:08:32.210Z,74.2
2023-04-04T04:09:48.626Z,74
2023-04-04T04:11:04.809Z,74.1
2023-04-04T04:12:20.998Z,74.2
2023-04-04T04:13:37.181Z,74.1
2023-04-04T04:14:53.362Z,74.1
2023-04-04T04:16:09.555Z,74
2023-04-04T04:17:25.531Z,74
2023-04-04T04:18:41.927Z,74
2023-04-04T04:19:57.132Z,74
2023-04-04T04:21:13.117Z,74.1
2023-04-04T04:22:29.502Z,74.1
2023-04-04T04:23:45.690Z,74
2023-04-04T04:25:01.672Z,74.1
2023-04-04T04:26:18.065Z,74.1
2023-04-04T04:27:34.266Z,74.1
2023-04-04T04:28:50.443Z,74.1
2023-04-04T04:30:06.627Z,74
2023-04-04T04:31:22.816Z,74
2023-04-04T04:32:38.787Z,74.1
2023-04-04T04:33:54.973Z,74
2023-04-04T04:35:11.389Z,74.1
2023-04-04T04:36:26.586Z,74.1
2023-04-04T04:37:42.781Z,74.1
2023-04-04T04:38:58.965Z,74.1
2023-04-04T04:40:15.155Z,74
2023-04-04T04:41:31.341Z,74.1
2023-04-04T04:42:47.518Z,74
2023-04-04T04:44:03.495Z,74
2023-04-04T04:45:19.911Z,74.1
2023-04-04T04:46:35.872Z,74
2023-04-04T04:47:52.054Z,74
2023-04-04T04:49:08.455Z,74
2023-04-04T04:50:24.657Z,74
2023-04-04T04:51:40.831Z,74
2023-04-04T04:52:56.039Z,74
2023-04-04T04:54:12.228Z,74
2023-04-04T04:55:28.192Z,73.9
2023-04-04T04:56:44.599Z,74
2023-04-04T04:58:00.797Z,73.9
2023-04-04T04:59:16.754Z,73.9
2023-04-04T05:00:33.163Z,73.9
2023-04-04T05:01:49.139Z,74
2023-04-04T05:03:05.539Z,73.9
2023-04-04T05:04:21.727Z,73.9
2023-04-04T05:05:37.922Z,73.9
2023-04-04T05:06:54.097Z,73.8
2023-04-04T05:08:10.297Z,73.8
2023-04-04T05:09:25.503Z,73.8
2023-04-04T05:10:41.466Z,73.9
2023-04-04T05:11:57.643Z,73.9
2023-04-04T05:13:14.050Z,73.8
2023-04-04T05:14:30.016Z,73.9
2023-04-04T05:15:46.439Z,73.8
2023-04-04T05:17:02.626Z,73.8
2023-04-04T05:18:18.589Z,73.8
2023-04-04T05:19:34.995Z,73.8
2023-04-04T05:20:51.195Z,73.8
2023-04-04T05:22:07.141Z,73.7
2023-04-04T05:23:23.563Z,73.7
2023-04-04T05:24:39.521Z,73.8
2023-04-04T05:25:54.716Z,73.7
2023-04-04T05:27:11.132Z,73.7
2023-04-04T05:28:27.335Z,73.7
2023-04-04T05:29:43.515Z,73.8
2023-04-04T05:30:59.709Z,73.7
2023-04-04T05:32:15.671Z,73.7
2023-04-04T05:33:30.866Z,73.7
2023-04-04T05:34:47.300Z,73.7
2023-04-04T05:36:03.236Z,73.6
2023-04-04T05:37:19.668Z,73.7
2023-04-04T05:38:35.613Z,73.7
2023-04-04T05:39:52.033Z,73.7
2023-04-04T05:41:08.227Z,73.6
2023-04-04T05:42:24.412Z,73.6
2023-04-04T05:43:40.609Z,73.6
2023-04-04T05:44:56.781Z,73.6
2023-04-04T05:46:12.740Z,73.6
2023-04-04T05:47:29.167Z,73.6
2023-04-04T05:48:45.109Z,73.5
2023-04-04T05:50:00.320Z,73.5
2023-04-04T05:51:16.516Z,73.5
2023-04-04T05:52:32.933Z,73.5
2023-04-04T05:53:48.879Z,73.4
2023-04-04T05:55:05.301Z,73.4
2023-04-04T05:56:21.497Z,73.4
2023-04-04T05:57:37.675Z,73.4
2023-04-04T05:58:53.858Z,73.4
2023-04-04T06:00:10.052Z,73.3
2023-04-04T06:01:26.016Z,73.4
2023-04-04T06:02:42.185Z,73.5
2023-04-04T06:03:58.387Z,73.4
2023-04-04T06:05:14.810Z,73.4
2023-04-04T06:06:29.763Z,73.4
2023-04-04T06:07:46.195Z,73.4
2023-04-04T06:09:02.137Z,73.3
2023-04-04T06:10:18.560Z,73.3
2023-04-04T06:11:34.531Z,73.3
2023-04-04T06:12:50.941Z,73.3
2023-04-04T06:14:07.135Z,73.2
2023-04-04T06:15:23.081Z,73.2
2023-04-04T06:16:39.517Z,73.2
2023-04-04T06:17:55.465Z,73.1
2023-04-04T06:19:11.648Z,73.1
2023-04-04T06:20:28.064Z,73
2023-04-04T06:21:44.258Z,73.2
2023-04-04T06:22:59.000Z,73.2
2023-04-04T06:24:15.644Z,73.2
2023-04-04T06:25:31.826Z,73.2
2023-04-04T06:26:47.774Z,73.2
2023-04-04T06:28:03.972Z,73.2
2023-04-04T06:29:20.401Z,73.2
2023-04-04T06:30:36.577Z,73.2
2023-04-04T06:31:52.765Z,73.1
2023-04-04T06:33:08.714Z,73
2023-04-04T06:34:24.908Z,73
2023-04-04T06:35:41.327Z,73
2023-04-04T06:36:57.290Z,72.9
2023-04-04T06:38:13.707Z,72.8
2023-04-04T06:39:28.672Z,72.9
2023-04-04T06:40:44.852Z,72.7
2023-04-04T06:42:01.291Z,72.7
2023-04-04T06:43:17.484Z,72.7
2023-04-04T06:44:33.674Z,72.8
2023-04-04T06:45:49.847Z,72.7
2023-04-04T06:47:06.041Z,72.7
2023-04-04T06:48:21.982Z,72.7
2023-04-04T06:49:38.408Z,72.7
2023-04-04T06:50:54.596Z,72.5
2023-04-04T06:52:10.800Z,72.5
2023-04-04T06:53:26.725Z,72.5
2023-04-04T06:54:43.174Z,72.5
2023-04-04T06:55:58.128Z,72.5
2023-04-04T06:57:14.556Z,72.5
2023-04-04T06:58:30.738Z,72.4
2023-04-04T06:59:46.932Z,72.5
2023-04-04T07:01:03.124Z,72.4
2023-04-04T07:02:19.306Z,72.4
2023-04-04T07:03:35.243Z,72.5
2023-04-04T07:04:51.425Z,72.4
2023-04-04T07:06:07.619Z,72.4
2023-04-04T07:07:24.054Z,72.4
2023-04-04T07:08:40.239Z,72.4
2023-04-04T07:09:56.427Z,72.3
2023-04-04T07:11:12.628Z,72.2
2023-04-04T07:12:27.561Z,72.1
2023-04-04T07:13:43.761Z,72.1
2023-04-04T07:14:59.955Z,72.2
2023-04-04T07:16:16.124Z,72.2
2023-04-04T07:17:32.562Z,72.1
2023-04-04T07:18:48.519Z,72.2
2023-04-04T07:20:04.687Z,72.1
2023-04-04T07:21:21.127Z,72
2023-04-04T07:22:37.316Z,72
2023-04-04T07:23:53.512Z,72
2023-04-04T07:25:09.441Z,72
2023-04-04T07:26:25.630Z,72.1
2023-04-04T07:27:41.814Z,72.1
2023-04-04T07:28:57.281Z,72.1
2023-04-04T07:30:13.456Z,72.1
2023-04-04T07:31:29.402Z,72
2023-04-04T07:32:45.834Z,72.1
2023-04-04T07:34:02.029Z,72
2023-04-04T07:35:17.956Z,71.9
2023-04-04T07:36:34.406Z,72
2023-04-04T07:37:50.330Z,71.9
2023-04-04T07:39:06.524Z,71.9
2023-04-04T07:40:22.706Z,71.9
2023-04-04T07:41:39.151Z,71.8
2023-04-04T07:42:55.084Z,71.8
2023-04-04T07:44:11.258Z,71.8
2023-04-04T07:45:26.737Z,71.7
2023-04-04T07:46:42.917Z,71.7
2023-04-04T07:47:59.096Z,71.8
2023-04-04T07:49:15.296Z,71.7
2023-04-04T07:50:31.212Z,71.7
2023-04-04T07:51:47.657Z,71.5
2023-04-04T07:53:03.595Z,71.6
2023-04-04T07:54:20.032Z,71.6
2023-04-04T07:55:36.227Z,71.5
2023-04-04T07:56:52.166Z,71.5
2023-04-04T07:58:08.345Z,71.6
2023-04-04T07:59:24.800Z,71.5
2023-04-04T08:00:40.978Z,71.4
2023-04-04T08:01:56.173Z,71.5
2023-04-04T08:03:12.108Z,71.6
2023-04-04T08:04:28.562Z,71.5
2023-04-04T08:05:44.471Z,71.5
2023-04-04T08:07:00.658Z,71.4
2023-04-04T08:08:17.124Z,71.4
2023-04-04T08:09:33.304Z,71.4
2023-04-04T08:10:49.237Z,71.5
2023-04-04T08:12:05.417Z,71.5
2023-04-04T08:13:21.599Z,71.4
2023-04-04T08:14:38.048Z,71.5
2023-04-04T08:15:54.233Z,71.4
2023-04-04T08:17:10.427Z,71.4
2023-04-04T08:18:25.375Z,71.3
2023-04-04T08:19:41.819Z,71.3
2023-04-04T08:20:57.752Z,71.2
2023-04-04T08:22:13.920Z,71.1
2023-04-04T08:23:30.118Z,71.1
2023-04-04T08:24:46.311Z,71.3
2023-04-04T08:26:02.755Z,71.1
2023-04-04T08:27:18.951Z,71.2
2023-04-04T08:28:34.874Z,71.1
2023-04-04T08:29:51.310Z,71.1
2023-04-04T08:31:07.497Z,71.2
2023-04-04T08:32:23.420Z,71.1
2023-04-04T08:33:39.615Z,71.1
2023-04-04T08:34:54.809Z,71.1
2023-04-04T08:36:11.276Z,71.2
2023-04-04T08:37:27.450Z,71.2
2023-04-04T08:38:43.642Z,71.1
2023-04-04T08:39:59.830Z,71.1
2023-04-04T08:41:16.026Z,71
2023-04-04T08:42:31.931Z,71
2023-04-04T08:43:48.130Z,71
2023-04-04T08:45:04.579Z,70.9
2023-04-04T08:46:20.496Z,70.9
2023-04-04T08:47:36.684Z,70.8
2023-04-04T08:48:52.879Z,70.8
2023-04-04T08:50:09.054Z,70.9
2023-04-04T08:51:25.246Z,70.8
2023-04-04T08:52:40.461Z,70.9
2023-04-04T08:53:56.920Z,70.9
2023-04-04T08:55:12.821Z,70.9
2023-04-04T08:56:29.278Z,70.8
2023-04-04T08:57:45.469Z,70.7
2023-04-04T08:59:01.379Z,70.5
2023-04-04T09:00:17.581Z,70.8
2023-04-04T09:02:49.945Z,70.5
2023-04-04T09:04:06.139Z,70.7
2023-04-04T09:05:22.333Z,70.7
2023-04-04T09:06:38.504Z,70.7
2023-04-04T09:07:54.700Z,70.7
2023-04-04T09:09:10.168Z,70.5
2023-04-04T09:10:26.370Z,70.3
2023-04-04T09:11:42.552Z,70.3
2023-04-04T09:12:58.474Z,70.3
2023-04-04T09:14:14.654Z,70.3
2023-04-04T09:15:31.126Z,70.3
2023-04-04T09:16:47.042Z,70.2
2023-04-04T09:18:03.492Z,69.9
2023-04-04T09:19:19.692Z,70.2
2023-04-04T09:20:35.590Z,70.2
2023-04-04T09:21:51.788Z,70.3
2023-04-04T09:23:08.243Z,70
2023-04-04T09:24:24.449Z,70
2023-04-04T09:25:39.365Z,69.9
2023-04-04T09:26:55.548Z,69.9
2023-04-04T09:28:12.032Z,69.8
2023-04-04T09:29:27.938Z,69.7
2023-04-04T09:30:44.402Z,69.8
2023-04-04T09:32:00.312Z,69.8
2023-04-04T09:33:16.506Z,69.7
2023-04-04T09:34:32.699Z,69.7
2023-04-04T09:35:49.156Z,69.8
2023-04-04T09:37:05.058Z,69.8
2023-04-04T09:38:21.261Z,69.7
2023-04-04T09:39:37.716Z,69.8
2023-04-04T09:40:53.908Z,69.8
2023-04-04T09:42:09.109Z,69.7
2023-04-04T09:43:25.029Z,69.7
2023-04-04T09:44:41.214Z,69.7
2023-04-04T09:45:57.397Z,69.8
2023-04-04T09:47:13.597Z,69.8
2023-04-04T09:48:29.077Z,69.7
2023-04-04T09:49:45.280Z,69.6
2023-04-04T09:51:01.172Z,69.5
2023-04-04T09:52:17.359Z,69.5
2023-04-04T09:53:33.850Z,69.4
2023-04-04T09:54:49.753Z,69.3
2023-04-04T09:56:06.213Z,69.2
2023-04-04T09:57:22.119Z,69.1
2023-04-04T09:58:38.317Z,69.1
2023-04-04T09:59:54.503Z,69.1
2023-04-04T10:01:10.976Z,69.1
2023-04-04T10:02:26.877Z,69
2023-04-04T10:03:43.056Z,69
2023-04-04T10:04:58.564Z,69
2023-04-04T10:06:14.737Z,68.9
2023-04-04T10:07:30.642Z,68.9
2023-04-04T10:08:46.838Z,68.9
2023-04-04T10:10:03.321Z,68.8
2023-04-04T10:11:19.204Z,68.3
2023-04-04T10:12:35.685Z,68.1
2023-04-04T10:13:51.877Z,68
2023-04-04T10:15:07.780Z,68
2023-04-04T10:16:23.965Z,67.9
2023-04-04T10:17:40.165Z,67.7
2023-04-04T10:18:56.641Z,67.5
2023-04-04T10:20:12.820Z,67.3
2023-04-04T10:21:28.034Z,67.5
2023-04-04T10:22:43.930Z,67.6
2023-04-04T10:24:00.399Z,67.8
2023-04-04T10:25:16.305Z,67.8
2023-04-04T10:26:32.780Z,67.9
2023-04-04T10:27:48.967Z,67.9
2023-04-04T10:29:04.866Z,68.1
2023-04-04T10:30:21.068Z,68.3
2023-04-04T10:31:37.547Z,68.3
2023-04-04T10:32:53.434Z,68.3
2023-04-04T10:34:09.625Z,68.2
2023-04-04T10:35:25.805Z,68.2
2023-04-04T10:36:42.296Z,68.3
2023-04-04T10:37:57.239Z,68.2
2023-04-04T10:39:13.396Z,68.1
2023-04-04T10:40:29.896Z,68.1
2023-04-04T10:41:45.762Z,68
2023-04-04T10:43:01.962Z,67.8
2023-04-04T10:44:18.444Z,67.7
2023-04-04T10:45:34.333Z,67.8
2023-04-04T10:46:50.830Z,67.7
2023-04-04T10:48:07.011Z,67.8
2023-04-04T10:49:22.906Z,67.9
2023-04-04T10:50:39.389Z,67.9
2023-04-04T10:51:55.272Z,67.4
2023-04-04T10:53:11.475Z,67.4
2023-04-04T10:54:26.671Z,67.6
2023-04-04T10:55:43.161Z,66.8
2023-04-04T10:56:59.343Z,66.4
2023-04-04T10:58:15.542Z,66.9
2023-04-04T10:59:31.717Z,67
2023-04-04T11:00:47.625Z,67.2
2023-04-04T11:02:04.111Z,67.4
2023-04-04T11:03:19.991Z,67.5
2023-04-04T11:04:36.174Z,67.6
2023-04-04T11:05:52.375Z,67
2023-04-04T11:07:08.564Z,65.8
2023-04-04T11:08:24.759Z,65.1
2023-04-04T11:09:41.238Z,64.5
2023-04-04T11:10:56.447Z,64.1
2023-04-04T11:12:12.341Z,63.5
2023-04-04T11:13:28.833Z,63.3
2023-04-04T11:14:44.716Z,62.5
2023-04-04T11:16:00.905Z,62.9
2023-04-04T11:17:17.390Z,62.8
2023-04-04T11:18:33.577Z,62.6
2023-04-04T11:19:49.477Z,62.9
2023-04-04T11:21:05.665Z,62.9
2023-04-04T11:22:22.148Z,62.5
2023-04-04T11:23:38.341Z,62.1
2023-04-04T11:24:54.530Z,61.8
2023-04-04T11:26:10.723Z,61.7
2023-04-04T11:27:25.917Z,61.7
2023-04-04T11:28:41.805Z,61.6
2023-04-04T11:29:58.300Z,62
2023-04-04T11:31:14.193Z,62.1
2023-04-04T11:32:30.374Z,62.9
2023-04-04T11:33:46.867Z,63.7
2023-04-04T11:35:02.755Z,63.6
2023-04-04T11:36:19.236Z,63.7
2023-04-04T11:37:35.426Z,63.8
2023-04-04T11:38:51.322Z,62.9
2023-04-04T11:40:07.508Z,62.8
2023-04-04T11:41:23.995Z,62.9
2023-04-04T11:42:40.187Z,62.8
2023-04-04T11:43:55.393Z,63.2
2023-04-04T11:45:11.286Z,63.4
2023-04-04T11:46:27.471Z,63.1
2023-04-04T11:47:43.644Z,63.2
2023-04-04T11:49:00.152Z,63.4
2023-04-04T11:50:16.040Z,62.4
2023-04-04T11:51:32.220Z,63
2023-04-04T11:52:48.399Z,63.5
2023-04-04T11:54:04.593Z,63.9
2023-04-04T11:55:21.098Z,64.1
2023-04-04T11:56:37.277Z,64.2
2023-04-04T11:57:53.165Z,64.3
2023-04-04T11:59:09.658Z,64.4
2023-04-04T12:00:24.872Z,64.4
2023-04-04T12:01:40.758Z,64.4
2023-04-04T12:02:57.247Z,64.5
2023-04-04T12:04:13.444Z,64.5
2023-04-04T12:05:29.625Z,64.5
2023-04-04T12:06:45.821Z,64.1
2023-04-04T12:08:01.700Z,62.6
2023-04-04T12:09:17.886Z,61.5
2023-04-04T12:10:34.066Z,60.7
2023-04-04T12:11:50.580Z,60.7
2023-04-04T12:13:06.441Z,60.1
2023-04-04T12:14:22.632Z,59.5
2023-04-04T12:15:38.829Z,59.1
2023-04-04T12:16:54.344Z,58.8
2023-04-04T12:18:10.524Z,59.3
2023-04-04T12:19:26.733Z,60.3
2023-04-04T12:20:42.911Z,59.6
2023-04-04T12:21:59.105Z,58.3
2023-04-04T12:23:14.968Z,57.2
2023-04-04T12:24:31.166Z,56.3
2023-04-04T12:25:47.668Z,55.6
2023-04-04T12:27:03.861Z,55.1
2023-04-04T12:28:20.047Z,55.9
2023-04-04T12:29:36.236Z,57
2023-04-04T12:30:52.096Z,57.8
2023-04-04T12:32:08.298Z,58.6
2023-04-04T12:33:23.828Z,58.4
2023-04-04T12:34:40.012Z,57.3
2023-04-04T12:35:55.879Z,57.4
2023-04-04T12:37:12.393Z,58.4
2023-04-04T12:38:28.583Z,58.9
2023-04-04T12:39:44.449Z,59.6
2023-04-04T12:41:00.637Z,60.3
2023-04-04T12:42:16.816Z,61
2023-04-04T12:43:33.021Z,61.4
2023-04-04T12:44:49.212Z,61.8
2023-04-04T12:46:05.390Z,62.1
2023-04-04T12:47:21.588Z,62.3
2023-04-04T12:48:37.771Z,62.5
2023-04-04T12:49:52.977Z,62.7
2023-04-04T12:51:09.174Z,62.7
2023-04-04T12:52:25.675Z,62.8
2023-04-04T12:53:41.536Z,62.8
2023-04-04T12:54:57.732Z,62.7
2023-04-04T12:56:13.917Z,61.7
2023-04-04T12:57:30.429Z,61.3
2023-04-04T12:58:46.296Z,61.6
2023-04-04T13:00:02.483Z,62
2023-04-04T13:01:18.669Z,61.7
2023-04-04T13:02:34.861Z,60.5
2023-04-04T13:03:51.056Z,60.3
2023-04-04T13:05:07.569Z,60.9
2023-04-04T13:06:22.776Z,61.3
2023-04-04T13:07:38.638Z,61
2023-04-04T13:08:55.153Z,60.1
2023-04-04T13:10:11.007Z,60
2023-04-04T13:11:27.206Z,60.6
2023-04-04T13:12:43.717Z,61.1
2023-04-04T13:13:59.575Z,61.3
2023-04-04T13:15:16.092Z,60.9
2023-04-04T13:16:32.289Z,60.3
2023-04-04T13:17:48.138Z,59.3
2023-04-04T13:19:04.660Z,59.4
2023-04-04T13:20:20.848Z,59.9
2023-04-04T13:21:37.035Z,60.5
2023-04-04T13:22:51.916Z,61.2
2023-04-04T13:24:08.444Z,61.6
2023-04-04T13:25:24.288Z,61.9
2023-04-04T13:26:40.479Z,62.1
2023-04-04T13:27:57.005Z,62.3
2023-04-04T13:29:12.856Z,62.1
2023-04-04T13:30:29.049Z,61.7
2023-04-04T13:31:45.574Z,62
2023-04-04T13:33:01.761Z,62.3
2023-04-04T13:34:17.950Z,62.5
2023-04-04T13:35:34.144Z,62.4
2023-04-04T13:36:49.997Z,61.7
2023-04-04T13:38:06.519Z,62
2023-04-04T13:39:21.383Z,62.2
2023-04-04T13:40:37.583Z,62.3
2023-04-04T13:41:53.773Z,61.9
2023-04-04T13:43:09.950Z,59.3
2023-04-04T13:44:26.150Z,57.9
2023-04-04T13:45:42.670Z,56.8
2023-04-04T13:46:58.527Z,56.1
2023-04-04T13:48:14.703Z,55.5
2023-04-04T13:49:30.909Z,55
2023-04-04T13:50:47.429Z,56.1
2023-04-04T13:52:03.277Z,57.9
2023-04-04T13:53:19.805Z,59.3
2023-04-04T13:54:35.657Z,60.2
2023-04-04T13:55:50.862Z,60.7
2023-04-04T13:57:07.044Z,61.2
2023-04-04T13:58:23.578Z,61.5
2023-04-04T13:59:39.425Z,61.7
2023-04-04T14:00:55.946Z,61.8
2023-04-04T14:02:11.798Z,61.9
2023-04-04T14:03:27.023Z,61.9
2023-04-04T14:04:43.209Z,61.9
2023-04-04T14:05:59.738Z,60.5
2023-04-04T14:07:15.921Z,58.9
2023-04-04T14:08:32.109Z,57.7
2023-04-04T14:09:48.303Z,58.2
2023-04-04T14:11:04.484Z,59.4
2023-04-04T14:12:20.340Z,60.1
2023-04-04T14:13:36.854Z,60.6
2023-04-04T14:14:53.056Z,60.9
2023-04-04T14:16:09.243Z,61.2
2023-04-04T14:17:25.088Z,60.2
2023-04-04T14:18:41.274Z,59.9
2023-04-04T14:19:56.823Z,60.1
2023-04-04T14:21:13.000Z,60.4
2023-04-04T14:22:29.211Z,60.6
2023-04-04T14:23:45.396Z,60.7
2023-04-04T14:25:01.235Z,60.9
2023-04-04T14:26:17.418Z,61
2023-04-04T14:27:33.955Z,61.1
2023-04-04T14:28:50.151Z,61.3
2023-04-04T14:30:05.993Z,61.2
2023-04-04T14:31:22.526Z,61.3
2023-04-04T14:32:38.711Z,61.3
2023-04-04T14:33:54.562Z,61.3
2023-04-04T14:35:11.093Z,61.3
2023-04-04T14:36:26.302Z,61.4
2023-04-04T14:37:42.481Z,61.4
2023-04-04T14:38:58.674Z,61.6
2023-04-04T14:40:14.873Z,61.6
2023-04-04T14:41:30.700Z,61.8
2023-04-04T14:42:46.892Z,61.9
2023-04-04T14:44:03.442Z,62.1
2023-04-04T14:45:19.618Z,62.2
2023-04-04T14:46:35.807Z,62.2
2023-04-04T14:47:52.007Z,62.3
2023-04-04T14:49:08.198Z,62.4
2023-04-04T14:50:24.372Z,62.4
2023-04-04T14:51:40.563Z,62.3
2023-04-04T14:52:55.680Z,62.3
2023-04-04T14:54:11.857Z,62.3
2023-04-04T14:55:28.058Z,62.4
2023-04-04T14:56:44.252Z,62.5
2023-04-04T14:58:00.534Z,62.5
2023-04-04T14:59:16.724Z,62.5
2023-04-04T15:00:32.913Z,62.6
2023-04-04T15:01:49.098Z,62.6
2023-04-04T15:03:05.182Z,62.7
2023-04-04T15:04:21.368Z,62.8
2023-04-04T15:05:37.558Z,62.6
2023-04-04T15:06:53.751Z,62.9
2023-04-04T15:08:09.943Z,62.9
2023-04-04T15:09:25.151Z,63
2023-04-04T15:10:41.443Z,63.1
2023-04-04T15:11:57.622Z,63.3
2023-04-04T15:13:13.817Z,63.3
2023-04-04T15:14:30.004Z,63.4
2023-04-04T15:15:46.093Z,63.5
2023-04-04T15:17:02.388Z,63.5
2023-04-04T15:18:18.471Z,63.6
2023-04-04T15:19:34.660Z,63.6
2023-04-04T15:20:50.848Z,63.7
2023-04-04T15:22:07.133Z,63.7
2023-04-04T15:23:23.227Z,63.7
2023-04-04T15:24:39.410Z,63.8
2023-04-04T15:25:54.710Z,63.7
2023-04-04T15:27:10.903Z,63.7
2023-04-04T15:28:26.987Z,63.8
2023-04-04T15:29:43.281Z,63.9
2023-04-04T15:30:59.381Z,63.9
2023-04-04T15:32:15.558Z,63.9
2023-04-04T15:33:31.851Z,64
2023-04-04T15:34:47.936Z,64
2023-04-04T15:36:04.230Z,63.9
2023-04-04T15:37:20.413Z,63.9
2023-04-04T15:38:36.606Z,64.1
2023-04-04T15:39:52.806Z,64.1
2023-04-04T15:41:08.873Z,64.1
2023-04-04T15:42:24.083Z,64.3
2023-04-04T15:43:40.376Z,64.3
2023-04-04T15:44:56.572Z,64.4
2023-04-04T15:46:12.650Z,64.5
2023-04-04T15:47:28.834Z,64.6
2023-04-04T15:48:45.025Z,64.6
2023-04-04T15:50:01.216Z,64.7
2023-04-04T15:51:17.522Z,64.8
2023-04-04T15:52:33.699Z,64.8
2023-04-04T15:53:49.787Z,64.8
2023-04-04T15:55:06.089Z,64.9
2023-04-04T15:56:22.164Z,64.9
2023-04-04T15:57:38.344Z,64.9
2023-04-04T15:58:53.549Z,64.8
2023-04-04T16:00:09.858Z,64.9
2023-04-04T16:01:26.036Z,64.9
2023-04-04T16:02:42.225Z,65
2023-04-04T16:03:58.413Z,65
2023-04-04T16:05:14.493Z,65
2023-04-04T16:06:30.684Z,65.1
2023-04-04T16:07:46.993Z,65.1
2023-04-04T16:09:03.061Z,65.1
2023-04-04T16:10:19.249Z,65.1
2023-04-04T16:11:35.447Z,65.1
2023-04-04T16:12:51.626Z,65.2
2023-04-04T16:14:07.942Z,65.2
2023-04-04T16:15:23.140Z,65.4
2023-04-04T16:16:39.330Z,65.4
2023-04-04T16:17:55.414Z,65.5
2023-04-04T16:19:11.595Z,65.5
2023-04-04T16:20:27.891Z,65.6
2023-04-04T16:21:44.093Z,65.7
2023-04-04T16:23:00.273Z,65.7
2023-04-04T16:24:16.345Z,65.8
2023-04-04T16:25:32.644Z,65.8
2023-04-04T16:26:48.728Z,65.8
2023-04-04T16:28:04.907Z,65.9
2023-04-04T16:29:21.224Z,66
2023-04-04T16:30:37.415Z,65.9
2023-04-04T16:31:52.492Z,66
2023-04-04T16:33:08.805Z,66
2023-04-04T16:34:24.877Z,66.1
2023-04-04T16:35:41.056Z,66.1
2023-04-04T16:36:57.243Z,66.1
2023-04-04T16:38:13.554Z,66.2
2023-04-04T16:39:29.630Z,66.1
2023-04-04T16:40:45.941Z,66.2
2023-04-04T16:42:01.996Z,66.3
2023-04-04T16:43:18.187Z,66.4
2023-04-04T16:44:34.384Z,66.4
2023-04-04T16:45:50.691Z,66.3
2023-04-04T16:47:06.764Z,66.4
2023-04-04T16:48:21.958Z,66.5
2023-04-04T16:49:38.161Z,66.7
2023-04-04T16:50:54.346Z,66.7
2023-04-04T16:52:10.652Z,66.5
2023-04-04T16:53:26.835Z,66.7
2023-04-04T16:54:43.021Z,66.5
2023-04-04T16:55:59.102Z,66.7
2023-04-04T16:57:15.292Z,66.8
2023-04-04T16:58:31.470Z,66.8
2023-04-04T16:59:47.786Z,66.8
2023-04-04T17:01:03.984Z,66.8